sensor_id;sensor_type;location;lat;lon;timestamp;pressure;altitude;pressure_sealevel;temperature;humidity
10881;BME280;5493;48.884;8.338;2024-02-26T00:00:08;98253.34;;;13.41;45.13
10881;BME280;5493;48.884;8.338;2024-02-26T00:02:35;98257.19;;;13.35;44.85
10881;BME280;5493;48.884;8.338;2024-02-26T00:05:04;98248.91;;;13.26;45.49
10881;BME280;5493;48.884;8.338;2024-02-26T00:07:31;98249.13;;;13.30;45.71
10881;BME280;5493;48.884;8.338;2024-02-26T00:09:57;98257.28;;;13.25;44.46
10881;BME280;5493;48.884;8.338;2024-02-26T00:12:24;98261.97;;;13.19;44.56
10881;BME280;5493;48.884;8.338;2024-02-26T00:14:50;98252.06;;;13.34;44.78
10881;BME280;5493;48.884;8.338;2024-02-26T00:17:19;98265.28;;;13.11;43.86
10881;BME280;5493;48.884;8.338;2024-02-26T00:19:45;98273.28;;;13.21;44.36
10881;BME280;5493;48.884;8.338;2024-02-26T00:22:12;98269.69;;;13.31;44.61
10881;BME280;5493;48.884;8.338;2024-02-26T00:24:40;98273.84;;;13.23;44.81
10881;BME280;5493;48.884;8.338;2024-02-26T00:27:06;98269.47;;;13.51;46.45
10881;BME280;5493;48.884;8.338;2024-02-26T00:29:33;98257.13;;;13.40;46.95
10881;BME280;5493;48.884;8.338;2024-02-26T00:31:59;98260.03;;;13.49;46.99
10881;BME280;5493;48.884;8.338;2024-02-26T00:34:27;98270.66;;;13.16;46.88
10881;BME280;5493;48.884;8.338;2024-02-26T00:36:53;98271.25;;;13.37;48.76
10881;BME280;5493;48.884;8.338;2024-02-26T00:39:20;98266.50;;;13.53;46.87
10881;BME280;5493;48.884;8.338;2024-02-26T00:41:47;98275.41;;;13.53;49.72
10881;BME280;5493;48.884;8.338;2024-02-26T00:44:13;98268.25;;;13.62;50.18
10881;BME280;5493;48.884;8.338;2024-02-26T00:46:40;98270.13;;;13.67;48.49
10881;BME280;5493;48.884;8.338;2024-02-26T00:49:06;98270.41;;;13.42;48.18
10881;BME280;5493;48.884;8.338;2024-02-26T00:51:34;98265.16;;;13.50;50.10
10881;BME280;5493;48.884;8.338;2024-02-26T00:54:00;98276.31;;;13.44;49.65
10881;BME280;5493;48.884;8.338;2024-02-26T00:56:27;98271.41;;;13.46;49.64
10881;BME280;5493;48.884;8.338;2024-02-26T00:58:53;98286.47;;;13.28;52.98
10881;BME280;5493;48.884;8.338;2024-02-26T01:01:20;98264.53;;;13.35;54.70
10881;BME280;5493;48.884;8.338;2024-02-26T01:03:46;98265.88;;;13.03;58.97
10881;BME280;5493;48.884;8.338;2024-02-26T01:06:13;98274.50;;;12.76;67.44
10881;BME280;5493;48.884;8.338;2024-02-26T01:08:41;98280.34;;;12.55;77.90
10881;BME280;5493;48.884;8.338;2024-02-26T01:11:07;98281.59;;;12.67;80.84
10881;BME280;5493;48.884;8.338;2024-02-26T01:13:34;98275.94;;;12.64;79.35
10881;BME280;5493;48.884;8.338;2024-02-26T01:16:00;98273.56;;;12.57;82.50
10881;BME280;5493;48.884;8.338;2024-02-26T01:18:27;98267.06;;;12.58;86.25
10881;BME280;5493;48.884;8.338;2024-02-26T01:20:54;98270.72;;;12.33;91.57
10881;BME280;5493;48.884;8.338;2024-02-26T01:23:20;98278.31;;;12.70;99.84
10881;BME280;5493;48.884;8.338;2024-02-26T01:25:48;98285.59;;;12.36;100.00
10881;BME280;5493;48.884;8.338;2024-02-26T01:28:16;98293.50;;;12.22;100.00
10881;BME280;5493;48.884;8.338;2024-02-26T01:30:43;98288.81;;;12.38;100.00
10881;BME280;5493;48.884;8.338;2024-02-26T01:33:12;98294.47;;;12.42;99.19
10881;BME280;5493;48.884;8.338;2024-02-26T01:35:39;98307.63;;;12.53;100.00
10881;BME280;5493;48.884;8.338;2024-02-26T01:38:05;98317.84;;;12.12;100.00
10881;BME280;5493;48.884;8.338;2024-02-26T01:40:32;98317.03;;;12.22;100.00
10881;BME280;5493;48.884;8.338;2024-02-26T01:43:00;98315.19;;;12.07;100.00
10881;BME280;5493;48.884;8.338;2024-02-26T01:45:26;98321.16;;;12.04;100.00
10881;BME280;5493;48.884;8.338;2024-02-26T01:47:54;98311.53;;;11.58;100.00
10881;BME280;5493;48.884;8.338;2024-02-26T01:50:22;98321.53;;;11.67;100.00
10881;BME280;5493;48.884;8.338;2024-02-26T01:52:50;98312.91;;;11.60;100.00
10881;BME280;5493;48.884;8.338;2024-02-26T01:55:17;98319.41;;;11.49;100.00
10881;BME280;5493;48.884;8.338;2024-02-26T01:57:45;98320.50;;;11.33;100.00
10881;BME280;5493;48.884;8.338;2024-02-26T02:00:14;98317.81;;;11.18;100.00
10881;BME280;5493;48.884;8.338;2024-02-26T02:02:42;98317.81;;;11.18;100.00
10881;BME280;5493;48.884;8.338;2024-02-26T02:05:12;98324.56;;;11.35;100.00
10881;BME280;5493;48.884;8.338;2024-02-26T02:07:40;98317.25;;;11.41;100.00
10881;BME280;5493;48.884;8.338;2024-02-26T02:10:07;98316.97;;;11.53;100.00
10881;BME280;5493;48.884;8.338;2024-02-26T02:12:35;98316.50;;;11.05;100.00
10881;BME280;5493;48.884;8.338;2024-02-26T02:15:04;98316.50;;;10.75;100.00
10881;BME280;5493;48.884;8.338;2024-02-26T02:17:32;98310.84;;;10.81;100.00
10881;BME280;5493;48.884;8.338;2024-02-26T02:19:59;98319.75;;;10.67;100.00
10881;BME280;5493;48.884;8.338;2024-02-26T02:22:27;98301.91;;;10.46;100.00
10881;BME280;5493;48.884;8.338;2024-02-26T02:24:53;98300.28;;;10.40;100.00
10881;BME280;5493;48.884;8.338;2024-02-26T02:27:20;98311.91;;;10.75;100.00
10881;BME280;5493;48.884;8.338;2024-02-26T02:29:47;98316.50;;;10.95;100.00
10881;BME280;5493;48.884;8.338;2024-02-26T02:32:15;98319.19;;;10.70;100.00
10881;BME280;5493;48.884;8.338;2024-02-26T02:34:43;98309.22;;;10.45;100.00
10881;BME280;5493;48.884;8.338;2024-02-26T02:37:10;98327.50;;;10.53;100.00
10881;BME280;5493;48.884;8.338;2024-02-26T02:39:38;98312.75;;;10.81;100.00
10881;BME280;5493;48.884;8.338;2024-02-26T02:42:05;98310.50;;;10.22;100.00
10881;BME280;5493;48.884;8.338;2024-02-26T02:44:31;98301.25;;;9.98;100.00
10881;BME280;5493;48.884;8.338;2024-02-26T02:46:58;98309.78;;;9.85;100.00
10881;BME280;5493;48.884;8.338;2024-02-26T02:49:24;98304.41;;;9.80;100.00
10881;BME280;5493;48.884;8.338;2024-02-26T02:51:51;98301.44;;;9.81;100.00
10881;BME280;5493;48.884;8.338;2024-02-26T02:54:19;98299.66;;;10.12;100.00
10881;BME280;5493;48.884;8.338;2024-02-26T02:56:47;98301.78;;;10.00;100.00
10881;BME280;5493;48.884;8.338;2024-02-26T02:59:13;98302.50;;;9.75;100.00
10881;BME280;5493;48.884;8.338;2024-02-26T03:01:40;98297.56;;;9.62;100.00
10881;BME280;5493;48.884;8.338;2024-02-26T03:04:06;98295.97;;;9.61;100.00
10881;BME280;5493;48.884;8.338;2024-02-26T03:06:33;98291.97;;;9.74;100.00
10881;BME280;5493;48.884;8.338;2024-02-26T03:08:59;98286.94;;;9.93;100.00
10881;BME280;5493;48.884;8.338;2024-02-26T03:11:26;98284.94;;;10.30;100.00
10881;BME280;5493;48.884;8.338;2024-02-26T03:13:54;98287.31;;;10.21;100.00
10881;BME280;5493;48.884;8.338;2024-02-26T03:16:20;98296.75;;;10.19;100.00
10881;BME280;5493;48.884;8.338;2024-02-26T03:18:47;98289.78;;;10.43;100.00
10881;BME280;5493;48.884;8.338;2024-02-26T03:21:13;98286.56;;;10.46;100.00
10881;BME280;5493;48.884;8.338;2024-02-26T03:23:40;98273.31;;;10.19;100.00
10881;BME280;5493;48.884;8.338;2024-02-26T03:26:06;98270.66;;;10.40;100.00
10881;BME280;5493;48.884;8.338;2024-02-26T03:28:34;98262.84;;;10.33;100.00
10881;BME280;5493;48.884;8.338;2024-02-26T03:31:02;98269.78;;;10.09;100.00
10881;BME280;5493;48.884;8.338;2024-02-26T03:33:29;98263.66;;;10.33;100.00
10881;BME280;5493;48.884;8.338;2024-02-26T03:35:55;98254.50;;;10.50;100.00
10881;BME280;5493;48.884;8.338;2024-02-26T03:38:22;98254.75;;;10.23;100.00
10881;BME280;5493;48.884;8.338;2024-02-26T03:40:48;98247.75;;;10.27;100.00
10881;BME280;5493;48.884;8.338;2024-02-26T03:43:16;98243.88;;;9.93;100.00
10881;BME280;5493;48.884;8.338;2024-02-26T03:45:43;98242.25;;;9.86;100.00
10881;BME280;5493;48.884;8.338;2024-02-26T03:48:11;98237.19;;;10.05;100.00
10881;BME280;5493;48.884;8.338;2024-02-26T03:50:37;98243.47;;;9.54;100.00
10881;BME280;5493;48.884;8.338;2024-02-26T03:53:04;98242.38;;;9.50;100.00
10881;BME280;5493;48.884;8.338;2024-02-26T03:55:30;98239.19;;;9.58;100.00
10881;BME280;5493;48.884;8.338;2024-02-26T03:57:57;98236.50;;;9.63;100.00
10881;BME280;5493;48.884;8.338;2024-02-26T04:00:24;98239.00;;;9.84;100.00
10881;BME280;5493;48.884;8.338;2024-02-26T04:02:51;98223.44;;;10.07;100.00
10881;BME280;5493;48.884;8.338;2024-02-26T04:05:19;98230.66;;;9.81;100.00
10881;BME280;5493;48.884;8.338;2024-02-26T04:07:45;98232.34;;;10.12;100.00
10881;BME280;5493;48.884;8.338;2024-02-26T04:10:12;98231.44;;;9.71;100.00
10881;BME280;5493;48.884;8.338;2024-02-26T04:12:39;98238.34;;;9.52;100.00
10881;BME280;5493;48.884;8.338;2024-02-26T04:15:07;98242.53;;;9.90;100.00
10881;BME280;5493;48.884;8.338;2024-02-26T04:17:34;98244.97;;;9.97;100.00
10881;BME280;5493;48.884;8.338;2024-02-26T04:20:01;98248.19;;;9.94;100.00
10881;BME280;5493;48.884;8.338;2024-02-26T04:22:29;98253.00;;;9.92;100.00
10881;BME280;5493;48.884;8.338;2024-02-26T04:24:55;98262.63;;;9.67;100.00
10881;BME280;5493;48.884;8.338;2024-02-26T04:27:22;98250.59;;;9.80;100.00
10881;BME280;5493;48.884;8.338;2024-02-26T04:29:48;98248.41;;;9.77;100.00
10881;BME280;5493;48.884;8.338;2024-02-26T04:32:15;98245.94;;;9.70;100.00
10881;BME280;5493;48.884;8.338;2024-02-26T04:34:41;98246.84;;;9.96;100.00
10881;BME280;5493;48.884;8.338;2024-02-26T04:37:08;98244.09;;;9.76;100.00
10881;BME280;5493;48.884;8.338;2024-02-26T04:39:36;98248.16;;;9.88;100.00
10881;BME280;5493;48.884;8.338;2024-02-26T04:42:02;98247.63;;;9.76;100.00
10881;BME280;5493;48.884;8.338;2024-02-26T04:44:29;98252.22;;;9.86;100.00
10881;BME280;5493;48.884;8.338;2024-02-26T04:46:55;98254.69;;;10.08;100.00
10881;BME280;5493;48.884;8.338;2024-02-26T04:49:22;98255.47;;;9.93;100.00
10881;BME280;5493;48.884;8.338;2024-02-26T04:51:48;98261.94;;;10.07;100.00
10881;BME280;5493;48.884;8.338;2024-02-26T04:54:15;98267.91;;;10.14;100.00
10881;BME280;5493;48.884;8.338;2024-02-26T04:56:43;98269.50;;;10.05;100.00
10881;BME280;5493;48.884;8.338;2024-02-26T04:59:10;98269.78;;;10.09;100.00
10881;BME280;5493;48.884;8.338;2024-02-26T05:01:37;98274.31;;;10.03;100.00
10881;BME280;5493;48.884;8.338;2024-02-26T05:04:04;98277.56;;;10.05;100.00
10881;BME280;5493;48.884;8.338;2024-02-26T05:06:31;98274.84;;;10.00;100.00
10881;BME280;5493;48.884;8.338;2024-02-26T05:08:57;98280.75;;;9.92;100.00
10881;BME280;5493;48.884;8.338;2024-02-26T05:11:24;98288.38;;;10.20;100.00
10881;BME280;5493;48.884;8.338;2024-02-26T05:13:53;98287.81;;;10.13;100.00
10881;BME280;5493;48.884;8.338;2024-02-26T05:16:19;98287.75;;;9.93;100.00
10881;BME280;5493;48.884;8.338;2024-02-26T05:18:49;98298.84;;;10.02;100.00
10881;BME280;5493;48.884;8.338;2024-02-26T05:21:16;98302.88;;;10.09;100.00
10881;BME280;5493;48.884;8.338;2024-02-26T05:23:42;98298.13;;;10.26;100.00
10881;BME280;5493;48.884;8.338;2024-02-26T05:26:10;98301.63;;;10.32;100.00
10881;BME280;5493;48.884;8.338;2024-02-26T05:28:37;98306.97;;;10.17;100.00
10881;BME280;5493;48.884;8.338;2024-02-26T05:31:06;98299.97;;;10.16;100.00
10881;BME280;5493;48.884;8.338;2024-02-26T05:33:32;98297.28;;;10.31;100.00
10881;BME280;5493;48.884;8.338;2024-02-26T05:35:59;98302.19;;;10.44;100.00
10881;BME280;5493;48.884;8.338;2024-02-26T05:38:29;98294.38;;;10.38;100.00
10881;BME280;5493;48.884;8.338;2024-02-26T05:40:56;98298.66;;;10.33;100.00
10881;BME280;5493;48.884;8.338;2024-02-26T05:43:24;98300.00;;;10.31;100.00
10881;BME280;5493;48.884;8.338;2024-02-26T05:45:50;98298.38;;;10.35;100.00
10881;BME280;5493;48.884;8.338;2024-02-26T05:48:18;98305.97;;;10.53;100.00
10881;BME280;5493;48.884;8.338;2024-02-26T05:50:46;98301.94;;;10.76;100.00
10881;BME280;5493;48.884;8.338;2024-02-26T05:53:13;98307.59;;;10.64;100.00
10881;BME280;5493;48.884;8.338;2024-02-26T05:55:39;98304.91;;;10.59;100.00
10881;BME280;5493;48.884;8.338;2024-02-26T05:58:06;98307.34;;;10.56;100.00
10881;BME280;5493;48.884;8.338;2024-02-26T06:00:33;98307.31;;;10.71;100.00
10881;BME280;5493;48.884;8.338;2024-02-26T06:02:59;98305.16;;;10.68;100.00
10881;BME280;5493;48.884;8.338;2024-02-26T06:05:28;98321.34;;;10.73;100.00
10881;BME280;5493;48.884;8.338;2024-02-26T06:07:55;98307.34;;;10.76;100.00
10881;BME280;5493;48.884;8.338;2024-02-26T06:10:22;98318.41;;;10.84;100.00
10881;BME280;5493;48.884;8.338;2024-02-26T06:12:48;98323.53;;;10.91;100.00
10881;BME280;5493;48.884;8.338;2024-02-26T06:15:15;98330.22;;;10.53;100.00
10881;BME280;5493;48.884;8.338;2024-02-26T06:17:41;98332.63;;;10.34;100.00
10881;BME280;5493;48.884;8.338;2024-02-26T06:20:08;98333.09;;;10.21;100.00
10881;BME280;5493;48.884;8.338;2024-02-26T06:22:39;98337.41;;;10.17;100.00
10881;BME280;5493;48.884;8.338;2024-02-26T06:25:06;98358.34;;;10.10;100.00
10881;BME280;5493;48.884;8.338;2024-02-26T06:27:34;98348.34;;;10.06;100.00
10881;BME280;5493;48.884;8.338;2024-02-26T06:30:01;98347.84;;;10.14;100.00
10881;BME280;5493;48.884;8.338;2024-02-26T06:32:28;98355.63;;;10.00;100.00
10881;BME280;5493;48.884;8.338;2024-02-26T06:34:54;98358.78;;;9.87;100.00
10881;BME280;5493;48.884;8.338;2024-02-26T06:37:21;98353.69;;;9.96;100.00
10881;BME280;5493;48.884;8.338;2024-02-26T06:39:49;98356.72;;;10.04;100.00
10881;BME280;5493;48.884;8.338;2024-02-26T06:42:17;98354.84;;;10.05;100.00
10881;BME280;5493;48.884;8.338;2024-02-26T06:44:43;98357.66;;;10.30;100.00
10881;BME280;5493;48.884;8.338;2024-02-26T06:47:10;98349.69;;;10.03;100.00
10881;BME280;5493;48.884;8.338;2024-02-26T06:49:37;98353.16;;;9.94;100.00
10881;BME280;5493;48.884;8.338;2024-02-26T06:52:04;98355.41;;;10.12;100.00
10881;BME280;5493;48.884;8.338;2024-02-26T06:54:31;98367.63;;;10.34;100.00
10881;BME280;5493;48.884;8.338;2024-02-26T06:56:59;98369.31;;;10.56;100.00
10881;BME280;5493;48.884;8.338;2024-02-26T06:59:26;98370.34;;;10.45;100.00
10881;BME280;5493;48.884;8.338;2024-02-26T07:01:52;98379.41;;;10.18;100.00
10881;BME280;5493;48.884;8.338;2024-02-26T07:04:20;98380.75;;;10.21;100.00
10881;BME280;5493;48.884;8.338;2024-02-26T07:06:47;98372.88;;;10.04;100.00
10881;BME280;5493;48.884;8.338;2024-02-26T07:09:13;98379.34;;;10.08;100.00
10881;BME280;5493;48.884;8.338;2024-02-26T07:11:40;98377.97;;;10.06;100.00
10881;BME280;5493;48.884;8.338;2024-02-26T07:14:10;98384.06;;;10.38;100.00
10881;BME280;5493;48.884;8.338;2024-02-26T07:16:37;98391.59;;;10.36;100.00
10881;BME280;5493;48.884;8.338;2024-02-26T07:19:03;98390.41;;;10.12;100.00
10881;BME280;5493;48.884;8.338;2024-02-26T07:21:30;98390.78;;;10.30;100.00
10881;BME280;5493;48.884;8.338;2024-02-26T07:23:56;98389.56;;;10.06;100.00
10881;BME280;5493;48.884;8.338;2024-02-26T07:26:23;98385.75;;;9.97;100.00
10881;BME280;5493;48.884;8.338;2024-02-26T07:28:51;98391.09;;;9.87;100.00
10881;BME280;5493;48.884;8.338;2024-02-26T07:31:19;98393.91;;;10.12;100.00
10881;BME280;5493;48.884;8.338;2024-02-26T07:33:46;98395.28;;;10.15;100.00
10881;BME280;5493;48.884;8.338;2024-02-26T07:36:12;98387.88;;;9.95;100.00
10881;BME280;5493;48.884;8.338;2024-02-26T07:38:40;98393.06;;;10.07;100.00
10881;BME280;5493;48.884;8.338;2024-02-26T07:41:06;98385.75;;;9.97;100.00
10881;BME280;5493;48.884;8.338;2024-02-26T07:43:33;98380.66;;;10.06;100.00
10881;BME280;5493;48.884;8.338;2024-02-26T07:46:00;98386.84;;;10.01;100.00
10881;BME280;5493;48.884;8.338;2024-02-26T07:48:28;98394.13;;;10.01;100.00
10881;BME280;5493;48.884;8.338;2024-02-26T07:50:55;98398.31;;;10.38;100.00
10881;BME280;5493;48.884;8.338;2024-02-26T07:53:21;98392.78;;;10.70;100.00
10881;BME280;5493;48.884;8.338;2024-02-26T07:55:48;98395.69;;;10.54;100.00
10881;BME280;5493;48.884;8.338;2024-02-26T07:58:14;98389.22;;;10.55;100.00
10881;BME280;5493;48.884;8.338;2024-02-26T08:00:41;98391.13;;;10.74;100.00
10881;BME280;5493;48.884;8.338;2024-02-26T08:03:07;98395.16;;;10.52;100.00
10881;BME280;5493;48.884;8.338;2024-02-26T08:05:35;98399.72;;;10.51;100.00
10881;BME280;5493;48.884;8.338;2024-02-26T08:08:06;98400.03;;;10.75;100.00
10881;BME280;5493;48.884;8.338;2024-02-26T08:10:32;98398.41;;;10.69;100.00
10881;BME280;5493;48.884;8.338;2024-02-26T08:12:59;98394.66;;;10.70;100.00
10881;BME280;5493;48.884;8.338;2024-02-26T08:15:30;98400.34;;;11.04;100.00
10881;BME280;5493;48.884;8.338;2024-02-26T08:17:56;98398.47;;;11.19;100.00
10881;BME280;5493;48.884;8.338;2024-02-26T08:20:23;98405.75;;;10.94;100.00
10881;BME280;5493;48.884;8.338;2024-02-26T08:22:51;98404.13;;;10.98;100.00
10881;BME280;5493;48.884;8.338;2024-02-26T08:25:17;98397.38;;;10.90;100.00
10881;BME280;5493;48.884;8.338;2024-02-26T08:27:44;98406.03;;;11.07;100.00
10881;BME280;5493;48.884;8.338;2024-02-26T08:30:13;98407.09;;;11.57;100.00
10881;BME280;5493;48.884;8.338;2024-02-26T08:32:42;98399.28;;;11.60;100.00
10881;BME280;5493;48.884;8.338;2024-02-26T08:35:08;98401.16;;;11.40;100.00
10881;BME280;5493;48.884;8.338;2024-02-26T08:37:35;98404.16;;;11.38;100.00
10881;BME280;5493;48.884;8.338;2024-02-26T08:40:03;98402.19;;;11.99;100.00
10881;BME280;5493;48.884;8.338;2024-02-26T08:42:30;98406.53;;;11.70;100.00
10881;BME280;5493;48.884;8.338;2024-02-26T08:44:57;98417.28;;;12.05;100.00
10881;BME280;5493;48.884;8.338;2024-02-26T08:47:25;98422.34;;;12.27;100.00
10881;BME280;5493;48.884;8.338;2024-02-26T08:49:51;98416.88;;;12.42;100.00
10881;BME280;5493;48.884;8.338;2024-02-26T08:52:18;98419.59;;;12.42;100.00
10881;BME280;5493;48.884;8.338;2024-02-26T08:54:44;98427.13;;;12.50;100.00
10881;BME280;5493;48.884;8.338;2024-02-26T08:57:12;98427.00;;;12.70;100.00
10881;BME280;5493;48.884;8.338;2024-02-26T08:59:39;98438.88;;;12.74;100.00
10881;BME280;5493;48.884;8.338;2024-02-26T09:02:05;98440.34;;;13.11;100.00
10881;BME280;5493;48.884;8.338;2024-02-26T09:04:33;98435.88;;;12.81;100.00
10881;BME280;5493;48.884;8.338;2024-02-26T09:07:00;98426.81;;;13.06;100.00
10881;BME280;5493;48.884;8.338;2024-02-26T09:09:27;98426.09;;;13.34;100.00
10881;BME280;5493;48.884;8.338;2024-02-26T09:11:54;98415.78;;;12.97;100.00
10881;BME280;5493;48.884;8.338;2024-02-26T09:14:22;98425.94;;;12.66;100.00
10881;BME280;5493;48.884;8.338;2024-02-26T09:16:48;98427.94;;;12.51;100.00
10881;BME280;5493;48.884;8.338;2024-02-26T09:19:15;98437.13;;;12.99;100.00
10881;BME280;5493;48.884;8.338;2024-02-26T09:21:42;98433.97;;;13.30;100.00
10881;BME280;5493;48.884;8.338;2024-02-26T09:24:09;98424.13;;;13.01;100.00
10881;BME280;5493;48.884;8.338;2024-02-26T09:26:36;98428.06;;;13.23;100.00
10881;BME280;5493;48.884;8.338;2024-02-26T09:29:02;98421.69;;;12.99;100.00
10881;BME280;5493;48.884;8.338;2024-02-26T09:31:31;98432.69;;;13.18;100.00
10881;BME280;5493;48.884;8.338;2024-02-26T09:33:59;98433.09;;;13.35;100.00
10881;BME280;5493;48.884;8.338;2024-02-26T09:36:26;98440.00;;;13.17;100.00
10881;BME280;5493;48.884;8.338;2024-02-26T09:38:52;98440.81;;;13.18;100.00
10881;BME280;5493;48.884;8.338;2024-02-26T09:41:19;98443.19;;;13.29;100.00
10881;BME280;5493;48.884;8.338;2024-02-26T09:43:48;98444.31;;;13.23;100.00
10881;BME280;5493;48.884;8.338;2024-02-26T09:46:15;98436.00;;;13.49;100.00
10881;BME280;5493;48.884;8.338;2024-02-26T09:48:45;98446.13;;;13.33;100.00
10881;BME280;5493;48.884;8.338;2024-02-26T09:51:14;98446.41;;;13.31;100.00
10881;BME280;5493;48.884;8.338;2024-02-26T09:53:43;98443.78;;;13.84;100.00
10881;BME280;5493;48.884;8.338;2024-02-26T09:56:11;98451.53;;;13.67;100.00
10881;BME280;5493;48.884;8.338;2024-02-26T09:58:38;98455.94;;;13.87;100.00
10881;BME280;5493;48.884;8.338;2024-02-26T10:01:09;98456.19;;;13.90;100.00
10881;BME280;5493;48.884;8.338;2024-02-26T10:03:39;98452.16;;;13.88;100.00
10881;BME280;5493;48.884;8.338;2024-02-26T10:06:09;98451.59;;;14.14;100.00
10881;BME280;5493;48.884;8.338;2024-02-26T10:08:36;98448.84;;;13.96;100.00
10881;BME280;5493;48.884;8.338;2024-02-26T10:11:04;98446.63;;;13.98;100.00
10881;BME280;5493;48.884;8.338;2024-02-26T10:13:31;98459.00;;;14.09;100.00
10881;BME280;5493;48.884;8.338;2024-02-26T10:15:58;98456.56;;;14.78;100.00
10881;BME280;5493;48.884;8.338;2024-02-26T10:18:25;98457.59;;;14.11;100.00
10881;BME280;5493;48.884;8.338;2024-02-26T10:20:59;98463.00;;;14.11;100.00
10881;BME280;5493;48.884;8.338;2024-02-26T10:23:28;98468.13;;;14.65;100.00
10881;BME280;5493;48.884;8.338;2024-02-26T10:25:55;98466.22;;;15.08;100.00
10881;BME280;5493;48.884;8.338;2024-02-26T10:28:22;98469.06;;;15.36;100.00
10881;BME280;5493;48.884;8.338;2024-02-26T10:30:51;98458.09;;;15.59;100.00
10881;BME280;5493;48.884;8.338;2024-02-26T10:33:18;98460.31;;;15.01;100.00
10881;BME280;5493;48.884;8.338;2024-02-26T10:35:45;98470.03;;;15.26;100.00
10881;BME280;5493;48.884;8.338;2024-02-26T10:38:12;98472.84;;;15.72;100.00
10881;BME280;5493;48.884;8.338;2024-02-26T10:40:40;98471.16;;;15.76;100.00
10881;BME280;5493;48.884;8.338;2024-02-26T10:43:07;98471.25;;;15.52;100.00
10881;BME280;5493;48.884;8.338;2024-02-26T10:45:33;98475.31;;;15.55;100.00
10881;BME280;5493;48.884;8.338;2024-02-26T10:48:02;98483.81;;;15.30;100.00
10881;BME280;5493;48.884;8.338;2024-02-26T10:50:29;98486.16;;;15.36;100.00
10881;BME280;5493;48.884;8.338;2024-02-26T10:52:56;98464.44;;;15.87;100.00
10881;BME280;5493;48.884;8.338;2024-02-26T10:55:23;98470.78;;;15.96;100.00
10881;BME280;5493;48.884;8.338;2024-02-26T10:57:52;98477.91;;;15.79;100.00
10881;BME280;5493;48.884;8.338;2024-02-26T11:00:19;98477.13;;;15.92;100.00
10881;BME280;5493;48.884;8.338;2024-02-26T11:02:45;98484.75;;;16.36;100.00
10881;BME280;5493;48.884;8.338;2024-02-26T11:05:13;98475.06;;;16.16;100.00
10881;BME280;5493;48.884;8.338;2024-02-26T11:07:41;98479.16;;;16.59;100.00
10881;BME280;5493;48.884;8.338;2024-02-26T11:10:09;98478.00;;;17.01;100.00
10881;BME280;5493;48.884;8.338;2024-02-26T11:12:39;98480.16;;;16.77;100.00
10881;BME280;5493;48.884;8.338;2024-02-26T11:15:08;98489.13;;;16.78;100.00
10881;BME280;5493;48.884;8.338;2024-02-26T11:17:36;98490.91;;;16.55;100.00
10881;BME280;5493;48.884;8.338;2024-02-26T11:20:05;98492.81;;;16.27;100.00
10881;BME280;5493;48.884;8.338;2024-02-26T11:22:36;98495.75;;;16.44;100.00
10881;BME280;5493;48.884;8.338;2024-02-26T11:25:04;98487.00;;;16.88;100.00
10881;BME280;5493;48.884;8.338;2024-02-26T11:27:35;98489.16;;;17.49;100.00
10881;BME280;5493;48.884;8.338;2024-02-26T11:30:04;98481.78;;;18.47;100.00
10881;BME280;5493;48.884;8.338;2024-02-26T11:32:36;98478.41;;;18.50;100.00
10881;BME280;5493;48.884;8.338;2024-02-26T11:35:04;98484.91;;;18.32;100.00
10881;BME280;5493;48.884;8.338;2024-02-26T11:37:32;98481.94;;;20.28;100.00
10881;BME280;5493;48.884;8.338;2024-02-26T11:39:59;98475.06;;;20.59;100.00
10881;BME280;5493;48.884;8.338;2024-02-26T11:42:26;98470.53;;;20.63;100.00
10881;BME280;5493;48.884;8.338;2024-02-26T11:44:54;98475.91;;;19.53;100.00
10881;BME280;5493;48.884;8.338;2024-02-26T11:47:22;98486.56;;;18.81;100.00
10881;BME280;5493;48.884;8.338;2024-02-26T11:49:50;98488.34;;;18.77;100.00
10881;BME280;5493;48.884;8.338;2024-02-26T11:52:16;98491.59;;;18.88;100.00
10881;BME280;5493;48.884;8.338;2024-02-26T11:54:44;98483.97;;;19.41;100.00
10881;BME280;5493;48.884;8.338;2024-02-26T11:57:24;98494.44;;;19.56;100.00
10881;BME280;5493;48.884;8.338;2024-02-26T11:59:52;98492.00;;;19.81;100.00
10881;BME280;5493;48.884;8.338;2024-02-26T12:02:41;98497.66;;;18.85;100.00
10881;BME280;5493;48.884;8.338;2024-02-26T12:05:18;98492.00;;;19.55;100.00
10881;BME280;5493;48.884;8.338;2024-02-26T12:07:47;98504.22;;;19.66;100.00
10881;BME280;5493;48.884;8.338;2024-02-26T12:10:22;98497.31;;;18.69;100.00
10881;BME280;5493;48.884;8.338;2024-02-26T12:12:53;98484.84;;;20.31;100.00
10881;BME280;5493;48.884;8.338;2024-02-26T12:15:22;98483.25;;;20.59;99.92
10881;BME280;5493;48.884;8.338;2024-02-26T12:17:49;98483.19;;;20.47;100.00
10881;BME280;5493;48.884;8.338;2024-02-26T12:20:18;98482.84;;;20.49;100.00
10881;BME280;5493;48.884;8.338;2024-02-26T12:22:46;98487.50;;;20.48;99.63
10881;BME280;5493;48.884;8.338;2024-02-26T12:25:13;98491.22;;;19.63;100.00
10881;BME280;5493;48.884;8.338;2024-02-26T12:27:40;98479.16;;;20.74;100.00
10881;BME280;5493;48.884;8.338;2024-02-26T12:30:08;98490.63;;;20.76;99.18
10881;BME280;5493;48.884;8.338;2024-02-26T12:32:35;98487.56;;;21.28;100.00
10881;BME280;5493;48.884;8.338;2024-02-26T12:35:01;98492.97;;;20.86;100.00
10881;BME280;5493;48.884;8.338;2024-02-26T12:37:30;98498.03;;;20.21;100.00
10881;BME280;5493;48.884;8.338;2024-02-26T12:39:56;98506.75;;;19.37;96.43
10881;BME280;5493;48.884;8.338;2024-02-26T12:42:23;98497.28;;;20.03;100.00
10881;BME280;5493;48.884;8.338;2024-02-26T12:44:50;98497.44;;;19.21;100.00
10881;BME280;5493;48.884;8.338;2024-02-26T12:47:17;98499.50;;;18.58;100.00
10881;BME280;5493;48.884;8.338;2024-02-26T12:49:46;98507.13;;;18.79;100.00
10881;BME280;5493;48.884;8.338;2024-02-26T12:52:14;98505.25;;;18.88;100.00
10881;BME280;5493;48.884;8.338;2024-02-26T12:54:42;98509.09;;;18.87;100.00
10881;BME280;5493;48.884;8.338;2024-02-26T12:57:10;98502.56;;;19.22;100.00
10881;BME280;5493;48.884;8.338;2024-02-26T12:59:37;98499.41;;;19.46;100.00
10881;BME280;5493;48.884;8.338;2024-02-26T13:02:04;98510.75;;;19.05;100.00